Αρχική σελίδα
METAR-TAF:

METAR-TAF

Αεροδρόμια :

Τύνιδα, Τυνησία

γεωγραφικό πλάτος: 36-50N, γεωγραφικό μήκος: 010-14E, υψόμετρο: 3 μ

Παρών καιρός

Η αναφορά έγινε 30 λεπτά πριν, στις 21:00 UTC
Άνεμος 10 kt από Β/BΔ
Θερμοκρασία 23°C
Υγρασία 69%
Πίεση 1016 hPa
Ορατότητα 10 χλμ και άνω
Λίγα νέφη σε ύψος 3300 πόδια

METAR: DTTA 232100Z 33010KT 9999 FEW033 23/17 Q1016 NOSIG

Χρόνος: 22:30 (21:30 UTC)

Πρόγνωση Καιρού

Η αναφορά έγινε 4 ώρες και 30 λεπτά πριν, στις 17:00 UTC
Η πρόγνωση ισχύει από τις 23 στις 18 UTC έως τις 24 στις 18 UTC
Άνεμος 15 kt από Β/BΔ
Ορατότητα 10 χλμ και άνω
Δεν υπάρχουν νέφη με βάση κάτω από τα 1500 μ. και δεν υπάρχουν νέφη σωρειτομελανίτες.
Καθιστάμενος
από 23 στις 20 UTC έως τις 23 στις 22 UTC
Άνεμος 5 kt από μεταβλητές κατευθύνσεις

TAF: DTTA 231700Z 2318/2418 33015KT CAVOK BECMG 2320/2322 VRB05KT

Μετεωρολογικές αναφορές και προγνώσεις για περισσότερα από 4000 αεροδρόμια (δελτία METAR και TAF).

Οι διαθέσιμοι σταθμοί απεικονίζονται στο χάρτη με κίτρινες και κόκκινες κουκκίδες.

Μετακινήστε το ποντίκι πάνω από τις κουκκίδες για να δείτε το όνομα του σταθμού.

Στη συνέχεια, κάντε κλικ για να δείτε τις μετεωρολογικές αναφορές και τις προγνώσεις καιρού.

Για να αλλάξετε το χάρτη: κάντε κλικ στα πράσινα κουμπιά με τον μαύρο σταυρό για να ζουμάρετε, στο πράσινο κουμπί με την παύλα για να αφαιρέσετε το ζουμ ή στα πράσινα βέλη για να αντιπαραβάλλετε χάρτες.


METAR-TAF: